Home > Products > Valid Products > TAF

000
FTUS41 KRLX 302338
TAFEKN
TAF
KEKN 302338Z 0100/0124 30015G25KT 3SM TSRA OVC040CB
     FM010100 26006KT 5SM SHRA BR OVC035
     FM010300 23004KT 3SM BR BKN020
     FM010600 VRB03KT 1SM BR BKN002
     FM011200 VRB03KT 3SM BR BKN025
     FM011300 25005KT P6SM BKN020
     FM011600 27007KT P6SM SCT025=



000
FTUS41 KRLX 302338
TAFBKW
TAF
KBKW 302338Z 0100/0124 33010G20KT 3SM TSRA BKN040CB
     FM010100 VRB03KT 6SM SHRA VCTS BKN025CB
     FM010200 25004KT 6SM BR BKN025
     FM010700 24005KT 4SM BR BKN020
     FM011200 23004KT P6SM BKN010
     FM011500 26005KT P6SM BKN015
     FM011900 28008KT P6SM BKN035=



000
FTUS41 KRLX 302338
TAFHTS
TAF
KHTS 302338Z 0100/0124 21004KT 6SM SHRA BR VCTS BKN035CB
     FM010300 VRB03KT 5SM BR SCT030
     FM010600 VRB03KT 3SM BR BKN025
     FM011200 VRB03KT 6SM BR BKN020
     FM011500 25004KT P6SM SCT020
     FM012100 27006KT P6SM BKN050=



000
FTUS41 KRLX 302338
TAFCKB
TAF
KCKB 302338Z 0100/0124 21007KT 6SM SHRA VCTS BKN040CB
     FM010300 VRB03KT P6SM BKN025
     FM010500 22004KT 5SM BR BKN020
     FM010800 22004KT 3SM BR BKN025
     FM011200 22004KT 6SM BR BKN020
     FM011600 25007KT P6SM SCT025=



000
FTUS41 KRLX 302338
TAFCRW
TAF
KCRW 302338Z 0100/0124 29008KT 6SM SHRA BR VCTS BKN045CB
     FM010300 26004KT 6SM BR BKN035
     FM010700 24004KT 3SM BR BKN030
     FM011100 24003KT 6SM BR BKN015
     FM011300 25004KT P6SM BKN015
     FM011800 27006KT P6SM BKN035=



000
FTUS41 KRLX 302338
TAFPKB
TAF
KPKB 302338Z 0100/0124 22006KT 6SM BR VCSH BKN035
     FM010300 22004KT 3SM BR BKN035
     FM011300 22004KT P6SM BKN035
     FM011400 24004KT P6SM SCT035
      AMD NOT SKED=



000
FTUS41 KRLX 302232 AAA
TAFEKN
TAF AMD
KEKN 302232Z 3023/0118 24009KT P6SM VCTS SCT040CB
     FM302330 30010G20KT 2SM TSRA BKN040CB
     FM010100 31004KT 4SM BR BKN035
     FM010700 00000KT 2SM BR BKN010
     FM011300 VRB03KT 3SM HZ BKN015
     FM011400 26004KT P6SM SCT030=



000
FTUS41 KRLX 302230 AAA
TAFBKW
TAF AMD
KBKW 302230Z 3023/0118 26010G15KT P6SM VCTS BKN040CB
     FM302315 30015G25KT 2SM TSRA BKN040CB
     FM010000 27010KT 4SM SHRA BKN040
     FM010400 26008KT 6SM BR BKN030
     FM011100 25004KT P6SM BKN010
     FM011400 25004KT P6SM SCT020=



000
FTUS41 KRLX 302228 AAA
TAFCKB
TAF AMD
KCKB 302228Z 3022/0118 30015G35KT 2SM TSRA SCT035CB BKN060
     FM302315 31015G23KT 4SM SHRA VCTS BKN035CB
     FM010100 19004KT P6SM BKN035
     FM010600 00000KT 5SM BR BKN035
     FM010900 VRB03KT 5SM BR BKN015
     FM011300 22004KT P6SM SCT020=



000
FTUS41 KRLX 302228 AAA
TAFCKB
TAF AMD
KCKB 302228Z 3022/0118 30015G35KT 2SM TSRA SCT035CB BKN060
     FM302315 31015G23KT 4SM SHRA VCTS BKN035CB
     FM010100 19004KT P6SM BKN035
     FM010600 00000KT 5SM BR BKN035
     FM010900 VRB03KT 5SM BR BKN015
     FM011300 22004KT P6SM SCT020=



000
FTUS41 KRLX 302201 AAA
TAFHTS
TAF AMD
KHTS 302201Z 3022/0118 32010G15KT 1SM TSRA BKN030CB OVC050
     FM302230 33005KT 5SM SHRA VCTS BKN040CB
     FM010100 00000KT P6SM BKN040
     FM010500 00000KT 3SM BR BKN045
     FM010900 VRB03KT 4SM BR BKN020
     FM011300 VRB03KT P6SM SCT015=



000
FTUS41 KRLX 302141 AAA
TAFCRW
TAF AMD
KCRW 302141Z 3022/0118 28010KT 6SM TSRA BKN040CB
      TEMPO 3022/3023 34015G30KT 2SM TSRA BKN030CB OVC050
     FM010100 32005KT P6SM BKN040
     FM010600 28004KT 4SM BR BKN035
     FM011000 00000KT 3SM BR BKN015
     FM011300 00000KT P6SM SCT015=



000
FTUS41 KRLX 302141 AAA
TAFCRW
TAF AMD
KCRW 302141Z 3022/0118 28010KT 6SM TSRA BKN040CB
      TEMPO 3022/3023 34015G30KT 2SM TSRA BKN030CB OVC050
     FM010100 32005KT P6SM BKN040
     FM010600 28004KT 4SM BR BKN035
     FM011000 00000KT 3SM BR BKN015
     FM011300 00000KT P6SM SCT015=



000
FTUS41 KRLX 301744
TAFCKB
TAF
KCKB 301744Z 3018/0118 24008KT P6SM SCT035
     FM302100 31015G23KT P6SM VCTS BKN035CB
     FM010000 19004KT P6SM BKN035
     FM010600 00000KT 5SM BR BKN035
     FM010900 VRB03KT 5SM BR BKN015
     FM011300 22004KT P6SM SCT020=



000
FTUS41 KRLX 301744
TAFCRW
TAF
KCRW 301744Z 3018/0118 25008KT P6SM SCT040
     FM302000 25010G16KT P6SM VCTS BKN040CB
     FM302200 28010KT 6SM TSRA BKN040CB
      TEMPO 3022/3023 2SM TSRA BKN030CB OVC050
     FM010100 32005KT P6SM BKN040
     FM010600 28004KT 4SM BR BKN035
     FM011000 00000KT 3SM BR BKN015
     FM011300 00000KT P6SM SCT015=



000
FTUS41 KRLX 301744
TAFEKN
TAF
KEKN 301744Z 3018/0118 24009KT P6SM BKN040
     FM302000 24010G15KT P6SM VCTS BKN040CB
     FM010300 31004KT 4SM BR BKN035
     FM010700 00000KT 2SM BR BKN010
     FM011300 VRB03KT 3SM HZ BKN015
     FM011400 26004KT P6SM SCT030=



000
FTUS41 KRLX 301744
TAFBKW
TAF
KBKW 301744Z 3018/0118 26010G15KT P6SM VCTS BKN040CB
     FM302000 26011G16KT P6SM VCTS BKN040CB
     FM010100 27007KT P6SM BKN040
     FM011100 25004KT P6SM BKN010
     FM011400 25004KT P6SM SCT020=



000
FTUS41 KRLX 301744
TAFHTS
TAF
KHTS 301744Z 3018/0118 25008KT P6SM SCT040
     FM302000 25010G15KT P6SM VCTS SCT040CB
     FM302100 27010G15KT P6SM TSRA BKN040CB
      TEMPO 3021/3022 2SM TSRA BKN030CB OVC050
     FM302300 33005KT P6SM VCTS BKN040CB
     FM010100 00000KT P6SM BKN040
     FM010500 00000KT 3SM BR BKN045
     FM010900 VRB03KT 4SM BR BKN020
     FM011300 VRB03KT P6SM SCT015=



000
FTUS41 KRLX 301744
TAFPKB
TAF
KPKB 301744Z 3018/0118 23008KT P6SM SCT030
     FM301900 23010G15KT P6SM VCTS BKN040CB
      TEMPO 3020/3021 2SM TSRA BKN030CB OVC050
     FM302300 26007KT P6SM BKN040
     FM010600 20004KT 5SM BR BKN035
     FM010800 VRB03KT 5SM BR BKN015
     FM011300 21004KT P6SM SCT020=



000
FTUS41 KRLX 301459 AAA
TAFPKB
TAF AMD
KPKB 301459Z 3015/0112 22006KT P6SM BKN020
     FM301600 23007KT P6SM SCT030
     FM302000 23007KT P6SM VCTS BKN040CB
     FM010200 30008KT P6SM BKN045
     FM010600 VRB03KT 5SM BR BKN035=



000
FTUS41 KRLX 301459 AAA
TAFBKW
TAF AMD
KBKW 301459Z 3015/0112 24008KT P6SM BKN025
     FM301900 25007KT P6SM VCTS BKN050CB
     FM010300 25004KT P6SM BKN035=



000
FTUS41 KRLX 301459 AAA
TAFCKB
TAF AMD
KCKB 301459Z 3015/0112 22006KT P6SM BKN030
     FM301700 22008KT P6SM BKN035
     FM302200 22008KT P6SM VCTS BKN040CB
     FM010300 VRB03KT P6SM BKN040
     FM010900 VRB03KT 5SM BR BKN030=



000
FTUS41 KRLX 301459 AAA
TAFCRW
TAF AMD
KCRW 301459Z 3015/0112 25005KT P6SM BKN020
     FM301600 23007KT P6SM SCT030
     FM302300 24007KT P6SM VCTS BKN050CB
     FM010200 22004KT P6SM BKN040
     FM010700 00000KT 6SM BR BKN030=



000
FTUS41 KRLX 301459 AAA
TAFHTS
TAF AMD
KHTS 301459Z 3015/0112 22006KT P6SM SCT030
     FM302100 24007KT P6SM VCTS SCT040CB
     FM010200 23004KT P6SM BKN040
     FM010900 00000KT 4SM BR SCT025=



000
FTUS41 KRLX 301459 AAA
TAFEKN
TAF AMD
KEKN 301459Z 3015/0112 24004KT P6SM BKN030
     FM301700 26009KT P6SM VCTS BKN045CB
     FM010500 00000KT 5SM BR BKN030=



000
FTUS41 KRLX 301129
TAFBKW
TAF
KBKW 301129Z 3012/0112 VRB03KT P6SM SCT020 BKN050
     FM301500 24008KT P6SM BKN090
     FM301700 25007KT P6SM VCTS BKN050CB
     FM010200 25004KT P6SM VCTS BKN035CB
     FM010500 00000KT P6SM BKN030=



000
FTUS41 KRLX 301129
TAFEKN
TAF
KEKN 301129Z 3012/0112 00000KT 6SM BR SCT025 BKN050
     FM301400 24004KT P6SM BKN080
     FM301700 26009KT P6SM VCTS BKN045CB
     FM010500 00000KT 5SM BR BKN030=



000
FTUS41 KRLX 301129
TAFCRW
TAF
KCRW 301129Z 3012/0112 25005KT P6SM BKN040
     FM301500 23007KT P6SM SCT090
     FM301800 24007KT P6SM VCTS BKN050CB
     FM010200 22004KT P6SM BKN040
     FM010700 00000KT 6SM BR BKN030=



000
FTUS41 KRLX 301129
TAFHTS
TAF
KHTS 301129Z 3012/0112 VRB03KT 6SM BR SCT006 BKN035
      TEMPO 3012/3013 BKN008
     FM301400 22006KT P6SM SCT050
     FM301700 24007KT P6SM VCTS SCT040CB
     FM010200 23004KT P6SM BKN040
     FM010900 00000KT 4SM BR SCT025=



000
FTUS41 KRLX 301129
TAFPKB
TAF
KPKB 301129Z 3012/0112 VRB03KT P6SM BKN030
     FM301400 22006KT P6SM BKN035
     FM301700 23007KT P6SM VCTS BKN040CB
     FM010200 30008KT P6SM BKN045
     FM010600 VRB03KT 5SM BR BKN035
      AMD NOT SKED=



000
FTUS41 KRLX 301129
TAFCKB
TAF
KCKB 301129Z 3012/0112 21004KT P6SM BKN015
     FM301300 22006KT P6SM BKN050
     FM301700 22008KT P6SM VCTS BKN060CB
     FM010300 VRB03KT P6SM BKN040
     FM010900 VRB03KT 5SM BR BKN030=



000
FTUS41 KRLX 300900 AAA
TAFCRW
TAF AMD
KCRW 300900Z 3009/0106 VRB03KT 5SM BR BKN025
     FM301400 24004KT P6SM BKN050
     FM301600 23007KT P6SM SCT090
     FM301800 24007KT P6SM VCTS BKN050CB
     FM010200 VRB04KT P6SM BKN040=



000
FTUS41 KRLX 300859 AAA
TAFHTS
TAF AMD
KHTS 300859Z 3009/0106 VRB03KT 6SM BR SCT009 BKN035
      TEMPO 3009/3012 BKN009
     FM301300 22004KT P6SM BKN040
     FM301700 24007KT P6SM VCTS BKN040CB
     FM010200 23004KT P6SM BKN040=



000
FTUS41 KRLX 300859 AAA
TAFHTS
TAF AMD
KHTS 300859Z 3009/0106 VRB03KT 6SM BR SCT009 BKN035
      TEMPO 3009/3012 BKN009
     FM301300 22004KT P6SM BKN040
     FM301700 24007KT P6SM VCTS BKN040CB
     FM010200 23004KT P6SM BKN040=



000
FTUS41 KRLX 300858 AAA
TAFCKB
TAF AMD
KCKB 300858Z 3009/0106 00000KT 6SM BR BKN025
     FM301500 22005KT P6SM SCT025 BKN070
     FM301700 22008KT P6SM VCTS BKN060CB
     FM010300 VRB03KT P6SM BKN040=



000
FTUS41 KRLX 300857 AAA
TAFEKN
TAF AMD
KEKN 300857Z 3009/0106 00000KT 6SM BR BKN035
      TEMPO 3009/3012 5SM BR
     FM301300 24004KT 6SM BR SCT025 BKN040
     FM301700 26007KT P6SM VCTS BKN060CB=



000
FTUS41 KRLX 300857 AAA
TAFEKN
TAF AMD
KEKN 300857Z 3009/0106 00000KT 6SM BR BKN035
      TEMPO 3009/3012 5SM BR
     FM301300 24004KT 6SM BR SCT025 BKN040
     FM301700 26007KT P6SM VCTS BKN060CB=



000
FTUS41 KRLX 300856 AAA
TAFBKW
TAF AMD
KBKW 300856Z 3009/0106 VRB03KT P6SM BKN025
      TEMPO 3009/3013 BKN035
     FM301300 24008KT P6SM BKN040
     FM301700 25007KT P6SM VCTS BKN050CB
     FM010200 25004KT P6SM VCTS BKN035CB=



000
FTUS41 KRLX 300531
TAFEKN
TAF
KEKN 300531Z 3006/0106 17004KT 6SM -SHRA BKN035
     FM300800 00000KT 3SM BR BKN025
     FM301200 00000KT 2SM BR SCT025
     FM301300 24004KT 6SM BR SCT025 BKN040
     FM301700 26007KT P6SM VCTS BKN060CB=



000
FTUS41 KRLX 300531
TAFCRW
TAF
KCRW 300531Z 3006/0106 VRB03KT 6SM BR BKN040
     FM300800 VRB03KT 5SM BR BKN050
     FM301300 24004KT P6SM BKN050
     FM301500 23007KT P6SM SCT090
     FM301800 24007KT P6SM VCTS BKN050CB
     FM010200 VRB04KT P6SM BKN040=



000
FTUS41 KRLX 300531
TAFHTS
TAF
KHTS 300531Z 3006/0106 21004KT 6SM BR BKN090
     FM300800 VRB03KT 5SM BR BKN090
     FM301300 22004KT P6SM BKN080
     FM301700 24007KT P6SM VCTS BKN040CB
     FM010200 23004KT P6SM BKN040=



000
FTUS41 KRLX 300531
TAFBKW
TAF
KBKW 300531Z 3006/0106 VRB03KT P6SM BKN025
     FM301500 24008KT P6SM BKN040
     FM301700 25007KT P6SM VCTS BKN050CB
     FM010200 25004KT P6SM VCTS BKN035CB=



000
FTUS41 KRLX 300531
TAFPKB
TAF
KPKB 300531Z 3006/0106 00000KT 6SM BR BKN090
     FM300900 00000KT 5SM BR BKN030
     FM301300 22004KT P6SM BKN030
     FM301500 22007KT P6SM SCT050
     FM301700 23007KT P6SM VCTS BKN040CB
     FM010200 30008KT P6SM BKN045
      AMD NOT SKED=



000
FTUS41 KRLX 300531
TAFCKB
TAF
KCKB 300531Z 3006/0106 00000KT 6SM -SHRA BKN060
     FM300900 00000KT 5SM BR BKN090
     FM301300 22005KT P6SM BKN070
     FM301700 22008KT P6SM VCTS BKN060CB
     FM010300 VRB03KT P6SM BKN040=



000
FTUS41 KRLX 300250 AAA
TAFEKN
TAF AMD
KEKN 300250Z 3003/3024 18006KT 3SM SHRA VCTS BKN035CB
     FM300800 21007KT 1SM BR BKN010
     FM301300 23005KT 5SM BR BKN025
     FM301400 23005KT P6SM BKN025
     FM301600 24006KT P6SM VCTS BKN035CB=



000
FTUS41 KRLX 300250 AAA
TAFHTS
TAF AMD
KHTS 300250Z 3003/3024 19007KT P6SM VCTS BKN045CB
     FM300600 21004KT 6SM BR BKN025
     FM300800 21004KT 4SM BR BKN025
     FM301300 22005KT P6SM BKN030
     FM301600 23006KT P6SM VCTS BKN040CB=



000
FTUS41 KRLX 300250 AAA
TAFBKW
TAF AMD
KBKW 300250Z 3003/3024 20008KT P6SM VCTS BKN050CB
     FM300600 22006KT P6SM BKN025
     FM301600 23007KT P6SM VCTS BKN035CB=



000
FTUS41 KRLX 300250 AAA
TAFCKB
TAF AMD
KCKB 300250Z 3003/3024 16004KT 5SM SHRA VCTS BKN060CB
     FM300500 16005KT 6SM SHRA BR BKN040
     FM300700 20004KT 5SM BR BKN035
     FM301400 21007KT P6SM BKN025
     FM301700 23008KT P6SM VCTS BKN040CB=



000
FTUS41 KRLX 300250 AAA
TAFPKB
TAF AMD
KPKB 300250Z 3003/3024 18004KT P6SM VCTS OVC050CB
     FM300600 20004KT 6SM BR BKN030
     FM300900 21004KT 5SM BR BKN020
     FM301300 21005KT P6SM BKN020
     FM301700 23007KT P6SM VCTS BKN040CB
      AMD NOT SKED=



000
FTUS41 KRLX 300243 AAA
TAFCRW
TAF AMD
KCRW 300243Z 3003/3024 19005KT P6SM VCTS BKN060CB
      TEMPO 3003/3004 2SM TSRA BKN025CB
     FM300400 20004KT 4SM SHRA BR BKN045
     FM300800 22005KT 3SM BR BKN035
     FM301300 22005KT P6SM BKN025
     FM301600 23007KT P6SM BKN035
     FM301700 23007KT P6SM VCTS BKN045CB=



000
FTUS41 KRLX 300243 AAA
TAFCRW
TAF AMD
KCRW 300243Z 3003/3024 19005KT P6SM VCTS BKN060CB
      TEMPO 3003/3004 2SM TSRA BKN025CB
     FM300400 20004KT 4SM SHRA BR BKN045
     FM300800 22005KT 3SM BR BKN035
     FM301300 22005KT P6SM BKN025
     FM301600 23007KT P6SM BKN035
     FM301700 23007KT P6SM VCTS BKN045CB=



000
FTUS41 KRLX 292339
TAFEKN
TAF
KEKN 292339Z 3000/3024 20006KT P6SM BKN050
     FM300100 18005KT P6SM VCTS BKN045CB
     FM300200 18006KT 3SM SHRA VCTS BKN035CB
     FM300800 21007KT 1SM BR BKN010
     FM301300 23005KT 5SM BR BKN025
     FM301400 23005KT P6SM BKN025
     FM301600 24006KT P6SM VCTS BKN035CB=



000
FTUS41 KRLX 292339
TAFCRW
TAF
KCRW 292339Z 3000/3024 19005KT P6SM VCTS BKN060CB
      TEMPO 3000/3002 3SM TSRA BKN025CB
     FM300400 20004KT 6SM SHRA BR VCTS BKN045CB
     FM300800 22005KT 5SM BR BKN035
     FM301300 22005KT P6SM BKN025
     FM301600 23007KT P6SM BKN035
     FM301700 23007KT P6SM VCTS BKN045CB=



000
FTUS41 KRLX 292339
TAFPKB
TAF
KPKB 292339Z 3000/3024 18004KT P6SM VCTS OVC050CB
      TEMPO 3000/3002 3SM TSRA BKN035CB
     FM300600 20004KT 6SM BR BKN030
     FM300900 21004KT 5SM BR BKN020
     FM301300 21005KT P6SM BKN020
     FM301700 23007KT P6SM VCTS BKN040CB=



000
FTUS41 KRLX 292339
TAFBKW
TAF
KBKW 292339Z 3000/3024 20008KT P6SM VCTS BKN050CB
     FM300600 22006KT P6SM BKN025
     FM301600 23007KT P6SM VCTS BKN035CB=



000
FTUS41 KRLX 292339
TAFCKB
TAF
KCKB 292339Z 3000/3024 11005KT 6SM SHRA OVC060
     FM300200 16004KT 3SM SHRA VCTS BKN060CB
     FM300500 16005KT 6SM SHRA BR BKN040
     FM300700 20004KT 5SM BR BKN035
     FM301400 21007KT P6SM BKN025
     FM301700 23008KT P6SM VCTS BKN040CB=



000
FTUS41 KRLX 292339
TAFCRW
TAF
KCRW 292339Z 3000/3024 19005KT P6SM VCTS BKN060CB
      TEMPO 3000/3002 3SM TSRA BKN025CB
     FM300400 20004KT 6SM SHRA BR VCTS BKN045CB
     FM300800 22005KT 5SM BR BKN035
     FM301300 22005KT P6SM BKN025
     FM301600 23007KT P6SM BKN035
     FM301700 23007KT P6SM VCTS BKN045CB=



000
FTUS41 KRLX 292339
TAFHTS
TAF
KHTS 292339Z 3000/3024 19007KT P6SM VCTS BKN045CB
      TEMPO 3000/3002 3SM TSRA BKN035CB
     FM300600 21004KT 6SM BR BKN025
     FM300800 21004KT 4SM BR BKN025
     FM301300 22005KT P6SM BKN030
     FM301600 23006KT P6SM VCTS BKN040CB=



000
FTUS41 KRLX 292339
TAFBKW
TAF
KBKW 292339Z 3000/3024 20008KT P6SM VCTS BKN050CB
     FM300600 22006KT P6SM BKN025
     FM301600 23007KT P6SM VCTS BKN035CB=



000
FTUS41 KRLX 292339
TAFPKB
TAF
KPKB 292339Z 3000/3024 18004KT P6SM VCTS OVC050CB
      TEMPO 3000/3002 3SM TSRA BKN035CB
     FM300600 20004KT 6SM BR BKN030
     FM300900 21004KT 5SM BR BKN020
     FM301300 21005KT P6SM BKN020
     FM301700 23007KT P6SM VCTS BKN040CB=



000
FTUS41 KRLX 292339
TAFHTS
TAF
KHTS 292339Z 3000/3024 19007KT P6SM VCTS BKN045CB
      TEMPO 3000/3002 3SM TSRA BKN035CB
     FM300600 21004KT 6SM BR BKN025
     FM300800 21004KT 4SM BR BKN025
     FM301300 22005KT P6SM BKN030
     FM301600 23006KT P6SM VCTS BKN040CB=



000
FTUS41 KRLX 292339
TAFCKB
TAF
KCKB 292339Z 3000/3024 11005KT 6SM SHRA OVC060
     FM300200 16004KT 3SM SHRA VCTS BKN060CB
     FM300500 16005KT 6SM SHRA BR BKN040
     FM300700 20004KT 5SM BR BKN035
     FM301400 21007KT P6SM BKN025
     FM301700 23008KT P6SM VCTS BKN040CB=



000
FTUS41 KRLX 292339
TAFEKN
TAF
KEKN 292339Z 3000/3024 20006KT P6SM BKN050
     FM300100 18005KT P6SM VCTS BKN045CB
     FM300200 18006KT 3SM SHRA VCTS BKN035CB
     FM300800 21007KT 1SM BR BKN010
     FM301300 23005KT 5SM BR BKN025
     FM301400 23005KT P6SM BKN025
     FM301600 24006KT P6SM VCTS BKN035CB=



000
FTUS41 KRLX 291739
TAFHTS
TAF
KHTS 291739Z 2918/3018 20007KT P6SM BKN060
     FM292100 21008KT P6SM VCTS BKN040CB
     FM301200 00000KT P6SM BKN025
     FM301700 23007KT P6SM VCTS BKN040CB=



000
FTUS41 KRLX 291739
TAFPKB
TAF
KPKB 291739Z 2918/3018 20007KT 5SM -RA BR SCT030 BKN050 OVC070
     FM291930 21006KT 3SM SHRA BR VCTS OVC035CB
     FM292100 21004KT P6SM BKN040
     FM300900 22004KT P6SM BKN015
     FM301700 23006KT P6SM VCTS BKN035CB=



000
FTUS41 KRLX 291739
TAFCRW
TAF
KCRW 291739Z 2918/3018 22007KT P6SM BKN070
     FM292300 VRB05KT 5SM -SHRA BR BKN025
     FM300300 VRB05KT P6SM BKN035
     FM300800 00000KT P6SM BKN025
     FM301300 VRB03KT P6SM VCTS BKN025CB
     FM301700 24007KT P6SM VCTS BKN040CB=



000
FTUS41 KRLX 291739
TAFBKW
TAF
KBKW 291739Z 2918/3018 22006KT P6SM BKN070
     FM300800 00000KT 6SM SHRA BR BKN035
     FM301100 VRB03KT P6SM BKN025
     FM301300 21004KT P6SM VCTS BKN025CB=



000
FTUS41 KRLX 291739
TAFEKN
TAF
KEKN 291739Z 2918/3018 25004KT P6SM BKN070
     FM301100 00000KT P6SM BKN025
     FM301300 21004KT P6SM VCTS BKN025CB=



000
FTUS41 KRLX 291739
TAFCKB
TAF
KCKB 291739Z 2918/3018 20005KT P6SM SCT080
     FM292000 19004KT 5SM SHRA BR BKN040
     FM292200 19004KT P6SM BKN040
     FM300600 19004KT 5SM SHRA BR BKN040
     FM301000 20004KT P6SM BKN025
     FM301600 22007KT P6SM VCTS BKN025CB=



000
FTUS41 KRLX 291137
TAFCKB
TAF
KCKB 291137Z 2912/3012 00000KT P6SM SCT150
     FM300500 19004KT 5SM SHRA BR BKN040
     FM301000 20004KT P6SM BKN035=



000
FTUS41 KRLX 291137
TAFCRW
TAF
KCRW 291137Z 2912/3012 00000KT P6SM SCT140
     FM291500 21005KT P6SM BKN110
     FM300500 00000KT 6SM SHRA BR BKN040
     FM300700 00000KT P6SM BKN035
     FM300800 00000KT P6SM BKN025=



000
FTUS41 KRLX 291137
TAFEKN
TAF
KEKN 291137Z 2912/3012 00000KT 3/4SM BR BKN003
      TEMPO 2912/2913 5SM BR SCT004
     FM291300 00000KT 6SM BR FEW150
     FM291400 00000KT P6SM FEW150
     FM291800 25004KT P6SM BKN070
     FM300800 VRB03KT 6SM SHRA BR BKN035
     FM301100 00000KT P6SM BKN025=



000
FTUS41 KRLX 291137
TAFPKB
TAF
KPKB 291137Z 2912/3012 00000KT P6SM BKN150
     FM291600 19006KT P6SM BKN080
     FM300200 21006KT P6SM VCTS BKN040CB
     FM300300 21006KT 4SM SHRA BR VCTS OVC035CB
     FM300600 21006KT P6SM VCTS BKN040CB
     FM300800 22004KT P6SM BKN015=



000
FTUS41 KRLX 291137
TAFPKB
TAF
KPKB 291137Z 2912/3012 00000KT P6SM BKN150
     FM291600 19006KT P6SM BKN080
     FM300200 21006KT P6SM VCTS BKN040CB
     FM300300 21006KT 4SM SHRA BR VCTS OVC035CB
     FM300600 21006KT P6SM VCTS BKN040CB
     FM300800 22004KT P6SM BKN015=



000
FTUS41 KRLX 291137
TAFHTS
TAF
KHTS 291137Z 2912/3012 14004KT P6SM BKN100
     FM291500 19006KT P6SM BKN070
     FM292100 21008KT P6SM VCTS BKN040CB
     FM300200 19004KT P6SM VCTS BKN050CB
     FM301100 00000KT P6SM BKN035=



000
FTUS41 KRLX 291137
TAFEKN
TAF
KEKN 291137Z 2912/3012 00000KT 3/4SM BR BKN003
      TEMPO 2912/2913 5SM BR SCT004
     FM291300 00000KT 6SM BR FEW150
     FM291400 00000KT P6SM FEW150
     FM291800 25004KT P6SM BKN070
     FM300800 VRB03KT 6SM SHRA BR BKN035
     FM301100 00000KT P6SM BKN025=



000
FTUS41 KRLX 291137
TAFCRW
TAF
KCRW 291137Z 2912/3012 00000KT P6SM SCT140
     FM291500 21005KT P6SM BKN110
     FM300500 00000KT 6SM SHRA BR BKN040
     FM300700 00000KT P6SM BKN035
     FM300800 00000KT P6SM BKN025=



000
FTUS41 KRLX 291137
TAFBKW
TAF
KBKW 291137Z 2912/3012 00000KT P6SM FEW140
     FM291700 22006KT P6SM BKN080
     FM300500 00000KT P6SM BKN035
     FM300800 00000KT 6SM SHRA BR BKN035
     FM301000 VRB03KT P6SM BKN025=



000
FTUS41 KRLX 291137
TAFCKB
TAF
KCKB 291137Z 2912/3012 00000KT P6SM SCT150
     FM300500 19004KT 5SM SHRA BR BKN040
     FM301000 20004KT P6SM BKN035=



000
FTUS41 KRLX 291137
TAFBKW
TAF
KBKW 291137Z 2912/3012 00000KT P6SM FEW140
     FM291700 22006KT P6SM BKN080
     FM300500 00000KT P6SM BKN035
     FM300800 00000KT 6SM SHRA BR BKN035
     FM301000 VRB03KT P6SM BKN025=



000
FTUS41 KRLX 291137
TAFHTS
TAF
KHTS 291137Z 2912/3012 14004KT P6SM BKN100
     FM291500 19006KT P6SM BKN070
     FM292100 21008KT P6SM VCTS BKN040CB
     FM300200 19004KT P6SM VCTS BKN050CB
     FM301100 00000KT P6SM BKN035=



000
FTUS41 KRLX 290821 AAA
TAFCRW
TAF AMD
KCRW 290821Z 2908/3006 00000KT 6SM BR SCT150
      TEMPO 2909/2911 5SM BR
     FM291200 00000KT P6SM SCT140
     FM291500 21005KT P6SM BKN110
     FM300500 00000KT 6SM SHRA BR BKN040=



000
FTUS41 KRLX 290821 AAA
TAFHTS
TAF AMD
KHTS 290821Z 2908/3006 11003KT P6SM SCT150
      TEMPO 2909/2911 5SM BR
     FM291200 00000KT P6SM BKN100
     FM291500 19006KT P6SM BKN070
     FM292100 21008KT P6SM VCTS BKN040CB
     FM300200 19004KT P6SM VCTS BKN050CB=



000
FTUS41 KRLX 290821 AAA
TAFEKN
TAF AMD
KEKN 290821Z 2908/3006 00000KT 1/4SM FG BKN001
      TEMPO 2911/2912 2SM BR SCT002
     FM291200 00000KT 1SM BR BKN002
      TEMPO 2912/2913 5SM BR SCT004
     FM291300 00000KT 6SM BR FEW150
     FM291400 00000KT P6SM FEW150
     FM291800 25004KT P6SM BKN070=



000
FTUS41 KRLX 290821 AAB
TAFPKB
TAF AMD
KPKB 290821Z 2908/3006 00000KT 1/4SM FG BKN001
      TEMPO 2908/2911 2SM BR SCT002 BKN200
     FM291100 00000KT P6SM BKN150
     FM291600 19006KT P6SM BKN080
     FM300200 21006KT P6SM VCTS BKN040CB
     FM300300 21006KT 4SM SHRA BR VCTS OVC035CB
     FM300500 21006KT 6SM SHRA BR VCTS BKN040CB=



000
FTUS41 KRLX 290821 AAA
TAFCKB
TAF AMD
KCKB 290821Z 2908/3006 00000KT P6SM SKC
      TEMPO 2908/2912 1SM BR SCT002
     FM291200 VRB03KT P6SM SCT140
     FM291900 20005KT P6SM BKN080
     FM300500 18005KT 6SM BR BKN040=



000
FTUS41 KRLX 290821 AAA
TAFBKW
TAF AMD
KBKW 290821Z 2908/3006 00000KT P6SM SCT250
     FM291200 00000KT P6SM FEW140
     FM291700 22006KT P6SM BKN080
     FM300000 00000KT P6SM BKN035=



000
FTUS41 KRLX 290712 AAA
TAFPKB
TAF AMD
KPKB 290712Z 2907/3006 00000KT 1/4SM FG BKN001
      TEMPO 2907/2909 5SM BR SCT002 BKN200
     FM290900 00000KT 5SM BR SCT003 BKN150
     FM291100 00000KT P6SM BKN150
     FM291600 19006KT P6SM BKN080
     FM300200 21006KT P6SM VCTS BKN040CB
     FM300300 21006KT 4SM SHRA BR VCTS OVC035CB
     FM300500 21006KT 6SM SHRA BR VCTS BKN040CB=



000
FTUS41 KRLX 290712 AAA
TAFPKB
TAF AMD
KPKB 290712Z 2907/3006 00000KT 1/4SM FG BKN001
      TEMPO 2907/2909 5SM BR SCT002 BKN200
     FM290900 00000KT 5SM BR SCT003 BKN150
     FM291100 00000KT P6SM BKN150
     FM291600 19006KT P6SM BKN080
     FM300200 21006KT P6SM VCTS BKN040CB
     FM300300 21006KT 4SM SHRA BR VCTS OVC035CB
     FM300500 21006KT 6SM SHRA BR VCTS BKN040CB=



000
FTUS41 KRLX 290554
TAFHTS
TAF
KHTS 290554Z 2906/3006 00000KT 6SM BR BKN250
     FM290800 00000KT 5SM BR BKN250
     FM291100 00000KT 6SM BR BKN120
     FM291200 00000KT P6SM BKN100
     FM291500 19006KT P6SM BKN070
     FM292100 21008KT P6SM VCTS BKN040CB
     FM300200 19004KT P6SM VCTS BKN050CB=



000
FTUS41 KRLX 290554
TAFBKW
TAF
KBKW 290554Z 2906/3006 00000KT P6SM BKN250
     FM290800 00000KT 6SM BR BKN200
     FM290900 00000KT 5SM BR BKN200
     FM291100 00000KT 6SM BR FEW150
     FM291200 00000KT P6SM FEW140
     FM291700 22006KT P6SM BKN080
     FM300000 00000KT P6SM BKN035=



000
FTUS41 KRLX 290554
TAFCKB
TAF
KCKB 290554Z 2906/3006 00000KT 1/4SM FG BKN001
      TEMPO 2906/2908 2SM BR SCT002
     FM291100 00000KT 1SM BR FEW001
     FM291200 00000KT 4SM BR FEW150
     FM291300 00000KT 6SM BR SCT150
     FM291400 VRB03KT P6SM SCT140
     FM291900 20005KT P6SM BKN080
     FM300500 18005KT 6SM BR BKN040=



000
FTUS41 KRLX 290554
TAFEKN
TAF
KEKN 290554Z 2906/3006 00000KT 1/4SM FG BKN001
      TEMPO 2906/2908 2SM BR SCT002
     FM291100 00000KT 1SM BR BKN002
      TEMPO 2911/2913 5SM BR SCT004
     FM291300 00000KT 6SM BR FEW150
     FM291400 00000KT P6SM FEW150
     FM291800 25004KT P6SM BKN070=



000
FTUS41 KRLX 290554
TAFPKB
TAF
KPKB 290554Z 2906/3006 00000KT 6SM BR SCT250
     FM290900 00000KT 5SM BR SCT250
     FM291100 00000KT P6SM BKN150
     FM291600 19006KT P6SM BKN080
     FM300200 21006KT P6SM VCTS BKN040CB
     FM300300 21006KT 4SM SHRA BR VCTS OVC035CB
     FM300500 21006KT 6SM SHRA BR VCTS BKN040CB=



000
FTUS41 KRLX 290554
TAFCRW
TAF
KCRW 290554Z 2906/3006 00000KT 6SM BR SCT050
     FM290800 00000KT 5SM BR SCT050 BKN200
     FM291100 00000KT 6SM BR SCT150
     FM291200 00000KT P6SM SCT140
     FM291500 21005KT P6SM BKN110
     FM300500 00000KT 6SM SHRA BR BKN040=



000
FTUS41 KRLX 290554
TAFHTS
TAF
KHTS 290554Z 2906/3006 00000KT 6SM BR BKN250
     FM290800 00000KT 5SM BR BKN250
     FM291100 00000KT 6SM BR BKN120
     FM291200 00000KT P6SM BKN100
     FM291500 19006KT P6SM BKN070
     FM292100 21008KT P6SM VCTS BKN040CB
     FM300200 19004KT P6SM VCTS BKN050CB=



000
FTUS41 KRLX 290554
TAFPKB
TAF
KPKB 290554Z 2906/3006 00000KT 6SM BR SCT250
     FM290900 00000KT 5SM BR SCT250
     FM291100 00000KT P6SM BKN150
     FM291600 19006KT P6SM BKN080
     FM300200 21006KT P6SM VCTS BKN040CB
     FM300300 21006KT 4SM SHRA BR VCTS OVC035CB
     FM300500 21006KT 6SM SHRA BR VCTS BKN040CB=



000
FTUS41 KRLX 290554
TAFCKB
TAF
KCKB 290554Z 2906/3006 00000KT 1/4SM FG BKN001
      TEMPO 2906/2908 2SM BR SCT002
     FM291100 00000KT 1SM BR FEW001
     FM291200 00000KT 4SM BR FEW150
     FM291300 00000KT 6SM BR SCT150
     FM291400 VRB03KT P6SM SCT140
     FM291900 20005KT P6SM BKN080
     FM300500 18005KT 6SM BR BKN040=



000
FTUS41 KRLX 290554
TAFCRW
TAF
KCRW 290554Z 2906/3006 00000KT 6SM BR SCT050
     FM290800 00000KT 5SM BR SCT050 BKN200
     FM291100 00000KT 6SM BR SCT150
     FM291200 00000KT P6SM SCT140
     FM291500 21005KT P6SM BKN110
     FM300500 00000KT 6SM SHRA BR BKN040=



000
FTUS41 KRLX 290554
TAFBKW
TAF
KBKW 290554Z 2906/3006 00000KT P6SM BKN250
     FM290800 00000KT 6SM BR BKN200
     FM290900 00000KT 5SM BR BKN200
     FM291100 00000KT 6SM BR FEW150
     FM291200 00000KT P6SM FEW140
     FM291700 22006KT P6SM BKN080
     FM300000 00000KT P6SM BKN035=



000
FTUS41 KRLX 290554
TAFEKN
TAF
KEKN 290554Z 2906/3006 00000KT 1/4SM FG BKN001
      TEMPO 2906/2908 2SM BR SCT002
     FM291100 00000KT 1SM BR BKN002
      TEMPO 2911/2913 5SM BR SCT004
     FM291300 00000KT 6SM BR FEW150
     FM291400 00000KT P6SM FEW150
     FM291800 25004KT P6SM BKN070=



000
FTUS41 KRLX 290231 AAA
TAFPKB
TAF AMD
KPKB 290231Z 2903/2924 31005KT P6SM FEW050
     FM290500 00000KT P6SM FEW150
     FM290600 00000KT 5SM BR FEW200
     FM290800 00000KT 1SM BR FEW200
     FM291100 VRB03KT 3SM BR SCT150
     FM291200 18005KT P6SM BKN110=



000
FTUS41 KRLX 290231 AAA
TAFHTS
TAF AMD
KHTS 290231Z 2903/2924 30005KT P6SM FEW050
     FM290400 00000KT 6SM BR FEW150
     FM290600 00000KT 4SM BR FEW200
     FM290800 00000KT 3SM BR SCT120
     FM291200 18006KT P6SM BKN090
     FM292100 21009KT P6SM VCTS BKN040CB=



000
FTUS41 KRLX 290231 AAA
TAFEKN
TAF AMD
KEKN 290231Z 2903/2924 26008KT P6SM BKN050
     FM290500 00000KT 5SM BR FEW040
     FM290700 00000KT 1/4SM FG VV001
     FM291100 00000KT 1SM BR BKN002
     FM291300 00000KT 5SM BR SCT005 SCT200
     FM291400 22004KT P6SM SCT150
     FM292000 23006KT P6SM BKN060=



000
FTUS41 KRLX 290231 AAA
TAFCRW
TAF AMD
KCRW 290231Z 2903/2924 31007KT P6SM FEW050
     FM290400 00000KT 6SM BR FEW150
     FM290600 00000KT 4SM BR FEW200
     FM290800 00000KT 2SM BR SCT001
     FM291100 00000KT 3SM BR FEW001 SCT150
     FM291200 VRB03KT P6SM SCT140
     FM291500 19006KT P6SM BKN110=



000
FTUS41 KRLX 290231 AAA
TAFBKW
TAF AMD
KBKW 290231Z 2903/2924 30004KT P6SM FEW060
     FM290800 VRB03KT 6SM BR FEW150
     FM291200 17004KT P6SM FEW140
     FM292000 21009KT P6SM BKN060=



000
FTUS41 KRLX 290231 AAA
TAFCKB
TAF AMD
KCKB 290231Z 2903/2924 25004KT P6SM SCT060
     FM290600 00000KT 5SM BR FEW070
     FM290800 00000KT 1/2SM FG VV001
     FM291100 VRB03KT 1SM BR BKN002
     FM291200 19004KT 3SM BR SCT005 SCT150
     FM291300 19004KT P6SM SCT140
     FM292000 21005KT P6SM BKN080=



000
FTUS41 KRLX 290231 AAA
TAFCKB
TAF AMD
KCKB 290231Z 2903/2924 25004KT P6SM SCT060
     FM290600 00000KT 5SM BR FEW070
     FM290800 00000KT 1/2SM FG VV001
     FM291100 VRB03KT 1SM BR BKN002
     FM291200 19004KT 3SM BR SCT005 SCT150
     FM291300 19004KT P6SM SCT140
     FM292000 21005KT P6SM BKN080=



000
FTUS41 KRLX 290231 AAA
TAFBKW
TAF AMD
KBKW 290231Z 2903/2924 30004KT P6SM FEW060
     FM290800 VRB03KT 6SM BR FEW150
     FM291200 17004KT P6SM FEW140
     FM292000 21009KT P6SM BKN060=



000
FTUS41 KRLX 290231 AAA
TAFCRW
TAF AMD
KCRW 290231Z 2903/2924 31007KT P6SM FEW050
     FM290400 00000KT 6SM BR FEW150
     FM290600 00000KT 4SM BR FEW200
     FM290800 00000KT 2SM BR SCT001
     FM291100 00000KT 3SM BR FEW001 SCT150
     FM291200 VRB03KT P6SM SCT140
     FM291500 19006KT P6SM BKN110=



000
FTUS41 KRLX 290231 AAA
TAFEKN
TAF AMD
KEKN 290231Z 2903/2924 26008KT P6SM BKN050
     FM290500 00000KT 5SM BR FEW040
     FM290700 00000KT 1/4SM FG VV001
     FM291100 00000KT 1SM BR BKN002
     FM291300 00000KT 5SM BR SCT005 SCT200
     FM291400 22004KT P6SM SCT150
     FM292000 23006KT P6SM BKN060=



000
FTUS41 KRLX 290231 AAA
TAFHTS
TAF AMD
KHTS 290231Z 2903/2924 30005KT P6SM FEW050
     FM290400 00000KT 6SM BR FEW150
     FM290600 00000KT 4SM BR FEW200
     FM290800 00000KT 3SM BR SCT120
     FM291200 18006KT P6SM BKN090
     FM292100 21009KT P6SM VCTS BKN040CB=



000
FTUS41 KRLX 290231 AAA
TAFPKB
TAF AMD
KPKB 290231Z 2903/2924 31005KT P6SM FEW050
     FM290500 00000KT P6SM FEW150
     FM290600 00000KT 5SM BR FEW200
     FM290800 00000KT 1SM BR FEW200
     FM291100 VRB03KT 3SM BR SCT150
     FM291200 18005KT P6SM BKN110=



000
FTUS41 KRLX 282335
TAFCRW
TAF
KCRW 282335Z 2900/2924 31007KT P6SM FEW050
     FM290400 00000KT 6SM BR FEW150
     FM290600 00000KT 4SM BR FEW200
     FM290800 00000KT 2SM BR SCT001
     FM291100 00000KT 3SM BR FEW001 SCT150
     FM291200 VRB03KT P6SM SCT140
     FM291500 19006KT P6SM BKN110=



000
FTUS41 KRLX 282335
TAFCKB
TAF
KCKB 282335Z 2900/2924 28007KT P6SM BKN060
     FM290200 25004KT 6SM BR SCT060
     FM290500 00000KT 5SM BR FEW070
     FM290800 00000KT 1/2SM FG VV001
     FM291100 VRB03KT 1SM BR BKN002
     FM291200 19004KT 3SM BR SCT005 SCT150
     FM291300 19004KT P6SM SCT140
     FM292000 21005KT P6SM BKN080=



000
FTUS41 KRLX 282335
TAFPKB
TAF
KPKB 282335Z 2900/2924 31005KT P6SM FEW050
     FM290500 00000KT P6SM FEW150
     FM290600 00000KT 5SM BR FEW200
     FM290800 00000KT 1SM BR FEW200
     FM291100 VRB03KT 3SM BR SCT150
     FM291200 18005KT P6SM BKN110=



000
FTUS41 KRLX 282335
TAFCRW
TAF
KCRW 282335Z 2900/2924 31007KT P6SM FEW050
     FM290400 00000KT 6SM BR FEW150
     FM290600 00000KT 4SM BR FEW200
     FM290800 00000KT 2SM BR SCT001
     FM291100 00000KT 3SM BR FEW001 SCT150
     FM291200 VRB03KT P6SM SCT140
     FM291500 19006KT P6SM BKN110=



000
FTUS41 KRLX 282335
TAFEKN
TAF
KEKN 282335Z 2900/2924 26008KT P6SM BKN050
     FM290500 00000KT 5SM BR FEW040
     FM290700 00000KT 1/4SM FG VV001
     FM291100 00000KT 1SM BR BKN002
     FM291300 00000KT 5SM BR SCT005 SCT200
     FM291400 22004KT P6SM SCT150
     FM292000 23006KT P6SM BKN060=



000
FTUS41 KRLX 282335
TAFBKW
TAF
KBKW 282335Z 2900/2924 30008KT P6SM FEW045
     FM290200 30004KT P6SM FEW060
     FM290800 VRB03KT 6SM BR FEW150
     FM291200 17004KT P6SM FEW140
     FM292000 21009KT P6SM BKN060=



000
FTUS41 KRLX 282335
TAFPKB
TAF
KPKB 282335Z 2900/2924 31005KT P6SM FEW050
     FM290500 00000KT P6SM FEW150
     FM290600 00000KT 5SM BR FEW200
     FM290800 00000KT 1SM BR FEW200
     FM291100 VRB03KT 3SM BR SCT150
     FM291200 18005KT P6SM BKN110=



000
FTUS41 KRLX 282335
TAFHTS
TAF
KHTS 282335Z 2900/2924 30005KT P6SM FEW050
     FM290400 00000KT 6SM BR FEW150
     FM290600 00000KT 4SM BR FEW200
     FM290800 00000KT 3SM BR SCT120
     FM291200 18006KT P6SM BKN090
     FM292100 21009KT P6SM VCTS BKN040CB=



000
FTUS41 KRLX 282335
TAFCKB
TAF
KCKB 282335Z 2900/2924 28007KT P6SM BKN060
     FM290200 25004KT 6SM BR SCT060
     FM290500 00000KT 5SM BR FEW070
     FM290800 00000KT 1/2SM FG VV001
     FM291100 VRB03KT 1SM BR BKN002
     FM291200 19004KT 3SM BR SCT005 SCT150
     FM291300 19004KT P6SM SCT140
     FM292000 21005KT P6SM BKN080=



000
FTUS41 KRLX 282335
TAFEKN
TAF
KEKN 282335Z 2900/2924 26008KT P6SM BKN050
     FM290500 00000KT 5SM BR FEW040
     FM290700 00000KT 1/4SM FG VV001
     FM291100 00000KT 1SM BR BKN002
     FM291300 00000KT 5SM BR SCT005 SCT200
     FM291400 22004KT P6SM SCT150
     FM292000 23006KT P6SM BKN060=



000
FTUS41 KRLX 282335
TAFBKW
TAF
KBKW 282335Z 2900/2924 30008KT P6SM FEW045
     FM290200 30004KT P6SM FEW060
     FM290800 VRB03KT 6SM BR FEW150
     FM291200 17004KT P6SM FEW140
     FM292000 21009KT P6SM BKN060=



000
FTUS41 KRLX 282335
TAFHTS
TAF
KHTS 282335Z 2900/2924 30005KT P6SM FEW050
     FM290400 00000KT 6SM BR FEW150
     FM290600 00000KT 4SM BR FEW200
     FM290800 00000KT 3SM BR SCT120
     FM291200 18006KT P6SM BKN090
     FM292100 21009KT P6SM VCTS BKN040CB=



000
FTUS41 KRLX 281951 AAA
TAFEKN
TAF AMD
KEKN 281951Z 2820/2918 25009KT P6SM BKN025
     FM282200 28007KT P6SM SCT020 BKN040
     FM290500 00000KT 5SM BR FEW020
     FM290600 00000KT 2SM BR FEW015
     FM290700 00000KT 1/2SM FG VV001
     FM291230 00000KT 4SM BR SCT002
     FM291300 00000KT P6SM SCT200=



000
FTUS41 KRLX 281950 AAB
TAFCKB
TAF AMD
KCKB 281950Z 2820/2918 26009KT P6SM SCT025 BKN060
     FM290000 26006KT P6SM SCT060
     FM290500 00000KT 5SM BR SCT090
     FM290600 00000KT 2SM BR FEW090
     FM290700 00000KT 1/2SM FG VV001
     FM291200 00000KT 3SM BR SCT002
     FM291300 21004KT P6SM BKN120=



000
FTUS41 KRLX 281950 AAB
TAFCKB
TAF AMD
KCKB 281950Z 2820/2918 26009KT P6SM SCT025 BKN060
     FM290000 26006KT P6SM SCT060
     FM290500 00000KT 5SM BR SCT090
     FM290600 00000KT 2SM BR FEW090
     FM290700 00000KT 1/2SM FG VV001
     FM291200 00000KT 3SM BR SCT002
     FM291300 21004KT P6SM BKN120=



000
FTUS41 KRLX 281823 AAA
TAFCKB
TAF AMD
KCKB 281823Z 2818/2918 26006KT 6SM -RA BR OVC014
     FM282000 26009KT P6SM BKN022
     FM290000 26006KT P6SM SCT060
     FM290500 00000KT 5SM BR SCT090
     FM290600 00000KT 2SM BR FEW090
     FM290700 00000KT 1/2SM FG VV001
     FM291200 00000KT 3SM BR SCT002
     FM291300 21004KT P6SM BKN120=



000
FTUS41 KRLX 281742
TAFCRW
TAF
KCRW 281742Z 2818/2918 26011G18KT P6SM BKN040
     FM290000 27004KT P6SM FEW025
     FM290500 00000KT 4SM BR FEW025
     FM290700 00000KT 2SM BR FEW025
     FM290800 00000KT 1/2SM FG VV001
     FM291130 00000KT 4SM BR SCT002
     FM291230 VRB03KT P6SM BKN100=



000
FTUS41 KRLX 281742
TAFHTS
TAF
KHTS 281742Z 2818/2918 26012G19KT P6SM SKC
     FM282300 27005KT P6SM FEW035
     FM290600 00000KT 4SM BR FEW035
     FM290900 00000KT 2SM BR FEW035
     FM291100 00000KT P6SM BKN035
     FM291600 19006KT P6SM BKN140=



000
FTUS41 KRLX 281742
TAFEKN
TAF
KEKN 281742Z 2818/2918 25009KT 5SM -RA FEW012 BKN017 OVC023
     FM282200 28007KT P6SM SCT020
     FM290500 00000KT 5SM BR FEW020
     FM290600 00000KT 2SM BR FEW015
     FM290700 00000KT 1/2SM FG VV001
     FM291230 00000KT 4SM BR SCT002
     FM291300 00000KT P6SM SCT200=



000
FTUS41 KRLX 281742
TAFCKB
TAF
KCKB 281742Z 2818/2918 25009G16KT 2SM BR BKN009 OVC015
     FM281900 25009KT 3SM BR SCT013 OVC018
     FM282000 26009KT P6SM BKN013
     FM290000 26006KT P6SM SCT060
     FM290500 00000KT 5SM BR SCT090
     FM290600 00000KT 2SM BR FEW090
     FM290700 00000KT 1/2SM FG VV001
     FM291200 00000KT 3SM BR SCT002
     FM291300 21004KT P6SM BKN120=



000
FTUS41 KRLX 281742
TAFPKB
TAF
KPKB 281742Z 2818/2918 28012G18KT P6SM SCT035 OVC045
     FM282000 28008KT P6SM SCT035
     FM290000 29004KT P6SM FEW035
     FM290700 00000KT 3SM BR FEW025
     FM290900 00000KT 3/4SM BR SCT001
     FM291100 00000KT 4SM BR FEW150
     FM291200 00000KT P6SM SCT150
     FM291500 16004KT P6SM BKN100=



000
FTUS41 KRLX 281742
TAFBKW
TAF
KBKW 281742Z 2818/2918 27014G22KT P6SM FEW045
     FM282300 31005KT P6SM FEW025
     FM291600 24004KT P6SM BKN110=



000
FTUS41 KRLX 281509 AAA
TAFEKN
TAF AMD
KEKN 281509Z 2815/2912 25009G14KT P6SM BKN016 OVC023
     FM281700 28009G17KT P6SM BKN025
     FM282000 28012G25KT P6SM BKN035
     FM282300 28007KT P6SM SCT040
     FM290200 VRB03KT 4SM BR SCT040=



000
FTUS41 KRLX 281509 AAA
TAFPKB
TAF AMD
KPKB 281509Z 2815/2912 29007KT P6SM -RA BKN021 OVC027
     FM281700 27008KT P6SM BKN035
     FM282200 27007KT P6SM SCT050
     FM290100 VRB03KT P6SM SCT050
     FM290500 00000KT P6SM BKN200=



000
FTUS41 KRLX 281509 AAA
TAFHTS
TAF AMD
KHTS 281509Z 2815/2912 29010G16KT P6SM SKC
     FM290400 00000KT 6SM BR BKN200=



000
FTUS41 KRLX 281509 AAA
TAFCKB
TAF AMD
KCKB 281509Z 2815/2912 24011KT 2SM -RA BR BKN007 OVC012
     FM281800 25009KT P6SM BKN025
     FM282300 26006KT P6SM SCT035
     FM290200 00000KT P6SM SCT050
     FM290800 00000KT 6SM BR SCT060
     FM291100 00000KT 5SM BR SCT250=



000
FTUS41 KRLX 281509 AAA
TAFBKW
TAF AMD
KBKW 281509Z 2815/2912 28010G24KT P6SM SCT035 SCT040
     FM281600 29012G21KT P6SM SCT035
     FM282300 31005KT P6SM SCT250=



000
FTUS41 KRLX 281509 AAA
TAFCRW
TAF AMD
KCRW 281509Z 2815/2912 25014G19KT P6SM BKN035
     FM282000 28009KT P6SM SCT050
     FM290000 25004KT P6SM SCT250
     FM290800 00000KT 5SM BR FEW001 BKN200=



000
FTUS41 KRLX 281138
TAFEKN
TAF
KEKN 281138Z 2812/2912 25009KT P6SM BKN015
     FM281700 28009G17KT P6SM BKN025
     FM282000 28012G25KT P6SM BKN035
     FM282300 28007KT P6SM SCT040
     FM290200 VRB03KT 4SM BR SCT040=



000
FTUS41 KRLX 281138
TAFCRW
TAF
KCRW 281138Z 2812/2912 25009G16KT P6SM SCT035
      TEMPO 2812/2816 BKN025
     FM282000 28009KT P6SM SCT050
     FM290000 25004KT P6SM SCT250
     FM290800 00000KT 5SM BR FEW001 BKN200=



000
FTUS41 KRLX 281138
TAFBKW
TAF
KBKW 281138Z 2812/2912 27012G22KT P6SM BKN025
      TEMPO 2812/2815 BKN015
     FM281600 29012G21KT P6SM SCT035
     FM282300 31005KT P6SM SCT250=



000
FTUS41 KRLX 281138
TAFCKB
TAF
KCKB 281138Z 2812/2912 23009G17KT 5SM -SHRA BR BKN012 OVC025
      TEMPO 2812/2814 1 1/2SM -SHRA BR BKN007 OVC012
     FM281500 23010G19KT P6SM BKN025
     FM281800 25009KT P6SM BKN035
     FM290000 26006KT P6SM SCT035
     FM290200 00000KT P6SM SCT050
     FM290800 00000KT 6SM BR SCT060
     FM291100 00000KT 5SM BR SCT250=



000
FTUS41 KRLX 281138
TAFHTS
TAF
KHTS 281138Z 2812/2912 23006KT P6SM FEW035
     FM290400 00000KT 6SM BR BKN200=



000
FTUS41 KRLX 281138
TAFPKB
TAF
KPKB 281138Z 2812/2912 25010G18KT P6SM OVC015
      TEMPO 2812/2814 BKN025
     FM281400 27009G15KT P6SM BKN025
     FM281700 27008KT P6SM BKN035
     FM282200 27007KT P6SM SCT050
     FM290100 VRB03KT P6SM SCT050
     FM290500 00000KT P6SM BKN200=



000
FTUS41 KRLX 280831 AAA
TAFPKB
TAF AMD
KPKB 280831Z 2809/2906 24009G17KT P6SM BKN012
      TEMPO 2809/2812 BKN008
     FM281200 25007KT P6SM OVC025
     FM281700 28008KT P6SM BKN035
     FM282200 28007KT P6SM SCT050
     FM290100 VRB03KT P6SM SCT050
     FM290500 00000KT P6SM BKN200=



000
FTUS41 KRLX 280831 AAA
TAFHTS
TAF AMD
KHTS 280831Z 2809/2906 23007KT P6SM BKN035
     FM281000 21006KT P6SM SCT035
     FM282300 27005KT P6SM SCT250=



000
FTUS41 KRLX 280831 AAA
TAFBKW
TAF AMD
KBKW 280831Z 2809/2906 27007KT P6SM BKN025
     FM281300 28008KT P6SM SCT025
     FM282300 31005KT P6SM SCT250=



000
FTUS41 KRLX 280831 AAA
TAFEKN
TAF AMD
KEKN 280831Z 2809/2906 26008KT 6SM -SHRA BR BKN015
     FM281500 26009KT P6SM BKN012
     FM281700 30009KT P6SM BKN025
     FM282000 29010G25KT P6SM BKN035
     FM282300 28007KT P6SM SCT040
     FM290400 00000KT 5SM BR SCT040=



000
FTUS41 KRLX 280831 AAA
TAFCKB
TAF AMD
KCKB 280831Z 2809/2906 23010G19KT 6SM -SHRA BR BKN015
     FM281500 23010G19KT P6SM BKN025
     FM281800 25009KT P6SM BKN035
     FM290000 26006KT P6SM SCT035
     FM290200 VRB03KT P6SM SCT050=



000
FTUS41 KRLX 280831 AAA
TAFCRW
TAF AMD
KCRW 280831Z 2809/2906 26009G17KT P6SM BKN025
     FM281600 26009KT P6SM SCT035
     FM282000 29009KT P6SM SCT050
     FM290000 27004KT P6SM SCT250=



000
FTUS41 KRLX 280543
TAFPKB
TAF
KPKB 280543Z 2806/2906 24009G17KT P6SM BKN015
     FM280900 25007KT P6SM OVC025
     FM281700 28008KT P6SM BKN035
     FM282200 28007KT P6SM SCT050
     FM290100 VRB03KT P6SM SCT050
     FM290500 00000KT P6SM BKN200=



000
FTUS41 KRLX 280543
TAFHTS
TAF
KHTS 280543Z 2806/2906 23007KT P6SM BKN035
     FM281000 21006KT P6SM SCT035
     FM282300 27005KT P6SM SCT250=



000
FTUS41 KRLX 280543
TAFEKN
TAF
KEKN 280543Z 2806/2906 26008KT P6SM BKN015
      TEMPO 2806/2810 BKN025
     FM281500 26009KT P6SM BKN012
     FM281700 30009KT P6SM BKN025
     FM282000 29010G25KT P6SM BKN035
     FM282300 28007KT P6SM SCT040
     FM290400 00000KT 5SM BR SCT040=



000
FTUS41 KRLX 280543
TAFCRW
TAF
KCRW 280543Z 2806/2906 28009G17KT P6SM BKN025
     FM281600 26009KT P6SM SCT035
     FM282000 29009KT P6SM SCT050
     FM290000 27004KT P6SM SCT250=



000
FTUS41 KRLX 280543
TAFCKB
TAF
KCKB 280543Z 2806/2906 23010G19KT P6SM BKN025
      TEMPO 2808/2812 BKN015
     FM281500 23010G19KT P6SM BKN025
     FM281800 25009KT P6SM BKN035
     FM290000 26006KT P6SM SCT035
     FM290200 VRB03KT P6SM SCT050=



000
FTUS41 KRLX 280543
TAFBKW
TAF
KBKW 280543Z 2806/2906 27007KT P6SM BKN025
     FM280800 32007KT P6SM BKN025
     FM281100 28007KT P6SM BKN025
     FM281300 28008KT P6SM SCT025
     FM282300 31005KT P6SM SCT250=



000
FTUS41 KRLX 280248 AAA
TAFPKB
TAF AMD
KPKB 280248Z 2803/2824 25010G18KT 6SM -SHRA OVC020
     FM281200 27008G15KT P6SM OVC020
     FM281400 27010G17KT P6SM BKN025
     FM281900 27009KT P6SM BKN035=



000
FTUS41 KRLX 280248 AAA
TAFEKN
TAF AMD
KEKN 280248Z 2803/2824 24008KT P6SM BKN030
     FM280600 24008G15KT P6SM OVC020
     FM280900 25008G15KT 6SM -SHRA BR OVC018
     FM281400 26012G20KT 6SM BR BKN020
     FM281600 26014G20KT P6SM BKN025
     FM282100 28010KT P6SM BKN035=



000
FTUS41 KRLX 280248 AAA
TAFCRW
TAF AMD
KCRW 280248Z 2803/2824 27008G15KT P6SM OVC035
     FM280600 26008G15KT P6SM OVC025
      TEMPO 2806/2809 -SHRA
     FM281500 28011G17KT P6SM BKN035
     FM281900 28010G16KT P6SM SCT040
     FM282300 28007KT P6SM SKC=



000
FTUS41 KRLX 280248 AAA
TAFPKB
TAF AMD
KPKB 280248Z 2803/2824 25010G18KT 6SM -SHRA OVC020
     FM281200 27008G15KT P6SM OVC020
     FM281400 27010G17KT P6SM BKN025
     FM281900 27009KT P6SM BKN035=



000
FTUS41 KRLX 280248 AAA
TAFCKB
TAF AMD
KCKB 280248Z 2803/2824 23008G18KT P6SM BKN030
     FM280400 24010G17KT P6SM BKN030
     FM280600 23010G17KT 6SM -SHRA OVC020
     FM281700 25011G17KT P6SM BKN030
     FM281800 25010G17KT P6SM BKN035=



000
FTUS41 KRLX 280248 AAA
TAFHTS
TAF AMD
KHTS 280248Z 2803/2824 26008KT P6SM OVC030
      TEMPO 2803/2805 -SHRA
     FM281200 28008G17KT P6SM BKN035
     FM281700 28010G17KT P6SM SCT040
     FM282200 29008KT P6SM SKC=



000
FTUS41 KRLX 280248 AAA
TAFBKW
TAF AMD
KBKW 280248Z 2803/2824 27008G18KT P6SM BKN030
     FM280600 27008G18KT P6SM BKN025
     FM281600 28012G20KT P6SM BKN030
     FM281700 28012G20KT P6SM SCT040
     FM282300 29009KT P6SM SKC=



000
FTUS41 KRLX 280248 AAA
TAFBKW
TAF AMD
KBKW 280248Z 2803/2824 27008G18KT P6SM BKN030
     FM280600 27008G18KT P6SM BKN025
     FM281600 28012G20KT P6SM BKN030
     FM281700 28012G20KT P6SM SCT040
     FM282300 29009KT P6SM SKC=



000
FTUS41 KRLX 280248 AAA
TAFCKB
TAF AMD
KCKB 280248Z 2803/2824 23008G18KT P6SM BKN030
     FM280400 24010G17KT P6SM BKN030
     FM280600 23010G17KT 6SM -SHRA OVC020
     FM281700 25011G17KT P6SM BKN030
     FM281800 25010G17KT P6SM BKN035=



000
FTUS41 KRLX 280248 AAA
TAFHTS
TAF AMD
KHTS 280248Z 2803/2824 26008KT P6SM OVC030
      TEMPO 2803/2805 -SHRA
     FM281200 28008G17KT P6SM BKN035
     FM281700 28010G17KT P6SM SCT040
     FM282200 29008KT P6SM SKC=



000
FTUS41 KRLX 280248 AAA
TAFCRW
TAF AMD
KCRW 280248Z 2803/2824 27008G15KT P6SM OVC035
     FM280600 26008G15KT P6SM OVC025
      TEMPO 2806/2809 -SHRA
     FM281500 28011G17KT P6SM BKN035
     FM281900 28010G16KT P6SM SCT040
     FM282300 28007KT P6SM SKC=



000
FTUS41 KRLX 280248 AAA
TAFEKN
TAF AMD
KEKN 280248Z 2803/2824 24008KT P6SM BKN030
     FM280600 24008G15KT P6SM OVC020
     FM280900 25008G15KT 6SM -SHRA BR OVC018
     FM281400 26012G20KT 6SM BR BKN020
     FM281600 26014G20KT P6SM BKN025
     FM282100 28010KT P6SM BKN035=



    US Dept of Commerce
    National Oceanic and Atmospheric Administration
    National Weather Service
    1325 East West Highway
    Silver Spring, MD 20910
    Page Author: NWS Internet Services Team
Disclaimer
Information Quality
Credits
Glossary
Privacy Policy
Freedom of Information Act (FOIA)
About Us
Career Opportunities